Silver Peak Trail, Santa Catalina Island Weather observations

Data are for 10 minute period ending at time listed.
 Day   Time   Solar   Ave.   Ave.  Ave.  Vector    Max.   Stn.    Total
  of    of     Rad.   Air    Rel.  Wind   Wind     Wind   Baro.  Precip.
Year   Day            Temp.  Hum.  Speed  Dir.     Gust   Pres.         
2026   (PST)   W/m2    F      %     mph   deg.      mph    mb.     in.  
------------------------------------------------------------------------
 247   21:00    0.0    63   77.7    10     50.4    11.9    999.0   0.00  
 247   21:10    0.0    67   52.2     6     48.5    10.2    999.0   0.00  
 247   21:20    0.0    67   54.2     8     48.3    10.2    999.0   0.00  
 247   21:30    0.0    67   57.0     4     48.1     7.8    999.0   0.00  
 247   21:40    0.0    64   69.8     5     48.0     7.8    999.0   0.00  
 247   21:50    0.0    65   64.0     7     48.2    10.2    999.0   0.00  
 247   22:00    0.0    65   61.7     8     50.2    11.9    999.0   0.00  
 247   22:10    0.0    64   66.1     5     48.3     9.6    999.0   0.00  
 247   22:20    0.0    65   64.3     7     48.3     9.0    999.0   0.00  
 247   22:30    0.0    65   65.3     7     48.3     9.0    999.0   0.00  
 247   22:40    0.0    64   65.8     7     48.4     9.0    999.0   0.00  
 247   22:50    0.0    64   68.8     4     48.2     7.8    999.0   0.00  
 247   23:00    0.0    63   72.4     6     48.2     6.6    999.0   0.00  
 247   23:10    0.0    63   73.7     5     48.2     7.2    999.0   0.00  
 247   23:20    0.0    63   77.0     5     48.2     6.6    999.0   0.00  
 247   23:30    0.0    65   63.1     6     48.2     6.6    999.0   0.00  
 247   23:40    0.0    64   75.4     5     48.1     6.6    999.0   0.00  
 247   23:50    0.0    63   77.0     4     48.0     5.4    999.0   0.00  
 248    0:00    0.0    62   81.5     5     48.0     6.0    999.0   0.00  
 248    0:10    0.0    62   82.6     5     48.1     8.4    999.0   0.00  
 248    0:20    0.0    64   75.8     7     48.3     8.4    999.0   0.00  
 248    0:30    0.0    62   81.7     4     48.2     7.8    999.0   0.00  
 248    0:40    0.0    62   77.2     6     48.2     9.6    999.0   0.00  
 248    0:50    0.0    62   77.5     4     48.1     7.2    999.0   0.00  
 248    1:00    0.0    62   78.5     5     48.2     9.0    999.0   0.00  
 248    1:10    0.0    62   82.1     3     48.0     3.6    999.0   0.00  
 248    1:20    0.0    62   77.8     3     48.0     5.4    999.0   0.00  
 248    1:30    0.0    62   81.1     2     48.0     3.0    999.0   0.00  
 248    1:40    0.0    62   83.5     3     48.0     3.6    999.0   0.00  
 248    1:50    0.0    62   81.5     3     48.0     4.2    999.0   0.00  
 248    2:00    0.0    62   81.6     1     48.0     3.6    999.0   0.00  
 248    2:10    0.0    62   82.0     2     48.0     3.6    999.0   0.00  
 248    2:20    0.0    62   79.4     4     48.1     7.2    999.0   0.00  
 248    2:30    0.0    62   79.0     7     48.3     8.4    999.0   0.00  
 248    2:40    0.0    62   80.0     7     48.3     8.4    999.0   0.00  
 248    2:50    0.0    62   77.6     9     48.9    10.2    999.0   0.00  
 248    3:00    0.0    63   75.8     7     48.6     9.0    999.0   0.00  
 248    3:10    0.0    63   76.7     6     48.4     7.8    999.0   0.00  
 248    3:20    0.0    63   75.7     5     48.3     6.0    999.0   0.00  
 248    3:30    0.0    63   74.9     2     48.2     4.8    999.0   0.00  
 248    3:40    0.0    63   71.3     1     48.2     2.4    999.0   0.00  
 248    3:50    0.0    65   58.6     2     48.2     3.6    999.0   0.00  
 248    4:00    0.0    64   68.4     3     48.2     5.4    999.0   0.00  
 248    4:10    0.0    64   63.7     2     48.2     4.2    999.0   0.00  
 248    4:20    0.0    63   70.4     4     48.2     4.2    999.0   0.00  
 248    4:30    0.0    64   66.3     2     48.2     3.6    999.0   0.00  
 248    4:40    0.0    63   70.4     2     48.2     4.8    999.0   0.00  
 248    4:50    0.0    63   73.6     3     48.2     5.4    999.0   0.00  
 248    5:00    0.0    63   70.3     3     48.2     4.8    999.0   0.00  
 248    5:10    0.0    64   68.7     3     48.2     3.6    999.0   0.00  
 248    5:20    1.0    64   69.0     3     48.2     4.2    999.0   0.00  
 248    5:30    3.0    64   70.8     2     48.2     4.8    999.0   0.00  
 248    5:40   14.0    64   72.5     3     48.2     5.4    999.0   0.00  
 248    5:50   39.0    64   71.7     3     48.2     5.4    999.0   0.00  
 248    6:00   64.0    64   71.4     4     48.2     6.6    999.0   0.00  
 248    6:10   92.0    65   72.1     5     48.2     7.8    999.0   0.00  
 248    6:20  120.0    65   65.8     5     47.4     7.2    999.0   0.00  
 248    6:30  149.0    69   47.5     3     47.3     5.4    999.0   0.00  
 248    6:40  180.0    69   55.6     3     46.6     5.4    999.0   0.00  
 248    6:50  212.0    68   61.7     4     46.0     7.2    999.0   0.00  
 248    7:00  245.0    65   75.1     4     46.0     6.6    999.0   0.00  
 248    7:10  278.0    67   74.4     3     45.9     4.2    999.0   0.00  
 248    7:20  311.0    65   82.3     5     45.9     7.8    999.0   0.00  
 248    7:30  344.0    66   79.8     4     46.0     6.6    999.0   0.00  
 248    7:40  378.0    67   76.3     4     45.9     7.2    999.0   0.00  
 248    7:50  410.0    68   72.7     3     45.8     5.4    999.0   0.00  
 248    8:00  443.0    68   78.3     5     45.8     7.8    999.0   0.00  
 248    8:10  474.0    66   82.4     5     45.7     7.2    999.0   0.00  
 248    8:20  505.0    66   83.5     6     45.8     9.6    999.0   0.00  
 248    8:30  535.0    67   82.1     5     45.8     7.8    999.0   0.00  
 248    8:40  563.0    67   80.6     5     45.7     7.8    999.0   0.00  
 248    8:50  590.0    68   80.6     6     45.8    10.2    999.0   0.00  
 248    9:00  617.0    67   79.8     6     45.9     9.0    999.0   0.00  
 248    9:10  642.0    69   76.7     5     45.8     9.0    999.0   0.00  
 248    9:20  665.0    71   74.5     4     38.8     6.0    999.0   0.00  
 248    9:30  688.0    70   75.9     5     35.3     7.8    999.0   0.00  
 248    9:40  709.0    71   75.8     4     35.2     9.0    999.0   0.00  
 248    9:50  731.0    73   71.6     4     34.8     7.8    999.0   0.00  
 248   10:00  749.0    71   75.2     5     35.0     9.6    999.0   0.00  
 248   10:10  767.0    70   77.2     6     35.0     9.6    999.0   0.00  
 248   10:20  782.0    70   77.8     5     35.0     9.6    999.0   0.00  
 248   10:30  795.0    72   74.3     3     34.9     6.0    999.0   0.00  
 248   10:40  809.0    73   73.2     4     34.9     6.6    999.0   0.00  
 248   10:50  821.0    74   70.2     4     34.9     6.0    999.0   0.00  
 248   11:00  831.0    76   68.0     3     34.8     6.0    999.0   0.00  
 248   11:10  839.0    77   66.7     4     34.8     6.6    999.0   0.00  
 248   11:20  846.0    75   68.7     4     34.8     7.2    999.0   0.00  
 248   11:30  850.0    72   74.1     6     34.9     9.6    999.0   0.00  
 248   11:40  855.0    72   73.7     4     34.8     6.6    999.0   0.00  
 248   11:50  856.0    73   72.3     5     34.9     7.2    999.0   0.00  
 248   12:00  866.0    73   71.3     4     34.8     7.8    999.0   0.00  
 248   12:10  863.0    75   67.1     4     34.7     6.6    999.0   0.00  
 248   12:20  853.0    77   63.2     4     34.7     6.0    999.0   0.00  
 248   12:30  872.0    76   63.1     3     34.7     6.6    999.0   0.00  
 248   12:40  671.0    75   62.7     5     34.7     8.4    999.0   0.00  
 248   12:50  565.0    73   65.9     4     34.8     7.8    999.0   0.00  
 248   13:00  655.0    75   63.1     3     34.8     7.2    999.0   0.00  
 248   13:10  637.0    80   58.8     3     34.7     6.0    999.0   0.00  
 248   13:20  557.0    78   57.4     3     34.7     7.2    999.0   0.00  
 248   13:30  759.0    77   58.6     3     34.6     6.0    999.0   0.00  
 248   13:40  758.0    80   56.9     2     34.6     4.8    999.0   0.00  
 248   13:50  740.0    80   55.3     3     34.6     6.0    999.0   0.00  
 248   14:00  732.0    78   56.6     3     34.6     6.0    999.0   0.00  
 248   14:10  718.0    80   56.4     3     34.6     5.4    999.0   0.00  
 248   14:20  686.0    81   51.4     2     34.6     4.2    999.0   0.00  
 248   14:30  677.0    81   51.0     2     34.6     5.4    999.0   0.00  
 248   14:40  706.0    82   43.4     2     34.6     4.8    999.0   0.00  
 248   14:50  614.0    83   45.0     2     34.6     4.2    999.0   0.00  
 248   15:00  635.0    84   45.5     3     34.5     5.4    999.0   0.00  
 248   15:10  604.0    84   42.4     2     34.5     4.2    999.0   0.00  
 248   15:20  320.0    81   41.7     2     34.4     4.2    999.0   0.00  
 248   15:30  373.0    82   40.4     4     34.4     5.4    999.0   0.00  
 248   15:40  498.0    82   41.2     4     34.4     7.2    999.0   0.00  
 248   15:50  441.0    82   41.0     6     34.4     8.4    999.0   0.00  
 248   16:00  407.0    80   43.6     5     34.4     9.0    999.0   0.00  
 248   16:10  370.0    80   41.0     3     34.5     6.6    999.0   0.00  
 248   16:20  340.0    81   42.0     5     34.5     8.4    999.0   0.00  
 248   16:30  305.0    81   40.5     6     34.4     9.0    999.0   0.00  
 248   16:40  272.0    81   39.0     3     34.4     5.4    999.0   0.00  
 248   16:50  241.0    81   35.5     6     34.4     9.0    999.0   0.00  
 248   17:00  208.0    81   38.7     8     34.4     9.6    999.0   0.00  
 248   17:10  177.0    80   39.5     7     34.4     9.0    999.0   0.00  
 248   17:20  147.0    80   38.4     8     34.4     9.6    999.0   0.00  
 248   17:30  117.0    79   36.5     7     34.4     8.4    999.0   0.00  
 248   17:40   91.0    78   37.1     7     34.4     8.4    999.0   0.00  
 248   17:50   32.0    77   40.1     6     34.4     7.8    999.0   0.00  
 248   18:00   27.0    76   39.7     4     34.4     7.2    999.0   0.00  
 248   18:10   23.0    76   41.1     5     34.4     6.6    999.0   0.00  
 248   18:20   10.0    75   40.7     6     34.4     7.8    999.0   0.00  
 248   18:30    2.0    75   38.3     6     34.4     7.2    999.0   0.00  
 248   18:40    0.0    74   37.4     4     34.4     6.0    999.0   0.00  
 248   18:50    0.0    74   37.4     6     34.4     8.4    999.0   0.00  
 248   19:00    0.0    74   39.0     8     34.4     9.6    999.0   0.00  
 248   19:10    0.0    74   39.2     8     34.4     9.6    999.0   0.00  
 248   19:20    0.0    74   38.8     8     34.4     9.6    999.0   0.00  
 248   19:30    0.0    73   37.3     4     34.5     6.6    999.0   0.00  
 248   19:40    0.0    74   35.8     6     34.5     9.0    999.0   0.00  
 248   19:50    0.0    74   37.4     8     34.4     9.0    999.0   0.00  
 248   20:00    0.0    73   37.9     6     34.5     8.4    999.0   0.00  
 248   20:10    0.0    73   35.9     5     34.5     8.4    999.0   0.00  
 248   20:20    0.0    73   35.9     6     34.5     9.0    999.0   0.00  
 248   20:30    0.0    73   36.5     4     34.4     8.4    999.0   0.00  
 248   20:40    0.0    73   37.6     5     34.5     8.4    999.0   0.00  
 248   20:50    0.0    73   35.9     5     34.5     8.4    999.0   0.00  

Return to Silver Peak Trail graphs page.


Western Regional Climate Center,wrcc@dri.edu